Time;durP1;ratioP1;P1;durP2;ratioP2;P2;SDS_P1;SDS_P2;PMS_P1;PMS_P2;Temp;Humidity;BMP_temperature;BMP_pressure;BME280_temperature;BME280_humidity;BME280_pressure;Samples;Min_cycle;Max_cycle;Signal;HPM_P1;HPM_P2
2023/06/10 00:01:02;;;;;;;;;;;;;;;21.05;67.38;101366.97;4948600;28;20407;-72
2023/06/10 00:03:28;;;;;;;;;;;;;;;21.01;68.47;101371.06;4938680;28;20400;-72
2023/06/10 00:05:53;;;;;;;;;;;;;;;20.96;68.36;101375.16;4955357;28;20686;-71
2023/06/10 00:08:19;;;;;;;;;;;;;;;20.96;69.29;101374.31;4955849;28;19969;-72
2023/06/10 00:10:44;;;;;;;;;;;;;;;20.90;70.33;101375.03;4963134;28;20123;-72
2023/06/10 00:13:11;;;;;;;;;;;;;;;20.85;70.46;101380.97;4950812;28;20415;-72
2023/06/10 00:15:36;;;;;;;;;;;;;;;20.82;70.77;101376.75;4958376;28;20303;-71
2023/06/10 00:18:02;;;;;;;;;;;;;;;20.79;72.97;101385.28;4939811;28;19918;-72
2023/06/10 00:20:27;;;;;;;;;;;;;;;20.74;73.06;101379.44;4947463;28;19922;-72
2023/06/10 00:22:53;;;;;;;;;;;;;;;20.68;74.82;101381.00;4937562;28;19923;-71
2023/06/10 00:25:18;;;;;;;;;;;;;;;20.58;76.87;101374.88;4956714;28;19965;-72
2023/06/10 00:27:43;;;;;;;;;;;;;;;20.50;79.30;101374.91;4951343;28;19978;-71
2023/06/10 00:30:09;;;;;;;;;;;;;;;20.43;78.44;101373.88;4957876;28;19918;-72
2023/06/10 00:32:35;;;;;;;;;;;;;;;20.32;78.55;101372.34;4949885;28;19980;-72
2023/06/10 00:35:00;;;;;;;;;;;;;;;20.22;79.49;101381.53;4955127;28;20369;-71
2023/06/10 00:37:26;;;;;;;;;;;;;;;20.16;81.39;101381.38;4955283;28;20262;-72
2023/06/10 00:39:51;;;;;;;;;;;;;;;20.07;81.41;101386.81;4961523;28;19945;-72
2023/06/10 00:42:16;;;;;;;;;;;;;;;20.05;81.62;101385.28;4955503;28;19926;-72
2023/06/10 00:44:41;;;;;;;;;;;;;;;19.99;80.88;101391.41;4957107;28;19984;-72
2023/06/10 00:47:07;;;;;;;;;;;;;;;19.98;80.75;101389.72;4959647;28;19926;-71
2023/06/10 00:49:32;;;;;;;;;;;;;;;19.92;81.99;101383.91;4960098;28;20251;-72
2023/06/10 00:51:57;;;;;;;;;;;;;;;19.85;81.56;101382.00;4953094;28;20396;-72
2023/06/10 00:54:22;;;;;;;;;;;;;;;19.83;82.77;101386.75;4957433;28;20732;-72
2023/06/10 00:56:48;;;;;;;;;;;;;;;19.76;82.34;101387.41;4957173;28;20016;-71
2023/06/10 00:59:14;;;;;;;;;;;;;;;19.76;83.84;101389.31;4959159;28;19922;-71
2023/06/10 01:01:40;;;;;;;;;;;;;;;19.74;82.64;101388.63;4955566;28;20485;-71
2023/06/10 01:04:06;;;;;;;;;;;;;;;19.73;83.58;101386.91;4950675;28;20368;-72
2023/06/10 01:06:50;;;;;;;;;;;;;;;19.65;85.27;101387.75;4951872;28;19933;-71
2023/06/10 01:09:23;;;;;;;;;;;;;;;19.56;85.12;101381.44;4954226;28;19930;-72
2023/06/10 01:12:08;;;;;;;;;;;;;;;19.61;84.83;101378.19;4951469;28;19918;-72
2023/06/10 01:14:34;;;;;;;;;;;;;;;19.62;83.80;101385.34;4957207;28;19921;-71
2023/06/10 01:17:00;;;;;;;;;;;;;;;19.65;84.16;101385.03;4940616;28;19937;-72
2023/06/10 01:19:25;;;;;;;;;;;;;;;19.56;83.15;101391.47;4964143;28;19926;-71
2023/06/10 01:21:51;;;;;;;;;;;;;;;19.55;84.62;101395.19;4957341;28;19929;-71
2023/06/10 01:24:18;;;;;;;;;;;;;;;19.54;82.84;101388.91;4957937;28;19941;-71
2023/06/10 01:26:43;;;;;;;;;;;;;;;19.48;83.61;101393.13;4969034;28;20030;-71
2023/06/10 01:29:18;;;;;;;;;;;;;;;19.47;83.85;101393.31;4954829;28;19934;-71
2023/06/10 01:32:10;;;;;;;;;;;;;;;19.48;84.26;101398.56;4955025;28;19922;-71
2023/06/10 01:34:37;;;;;;;;;;;;;;;19.48;84.09;101395.00;4955673;28;19926;-71
2023/06/10 01:37:02;;;;;;;;;;;;;;;19.48;85.85;101393.13;4957165;28;19964;-71
2023/06/10 01:39:27;;;;;;;;;;;;;;;19.45;86.35;101390.75;4956056;28;19921;-71
2023/06/10 01:41:53;;;;;;;;;;;;;;;19.44;86.33;101396.34;4958740;28;19946;-71
2023/06/10 01:44:22;;;;;;;;;;;;;;;19.39;85.74;101394.13;4955265;28;20017;-71
2023/06/10 01:46:47;;;;;;;;;;;;;;;19.36;86.55;101386.28;4953083;28;19933;-71
2023/06/10 01:49:12;;;;;;;;;;;;;;;19.37;88.17;101392.56;4955491;28;19926;-71
2023/06/10 01:51:38;;;;;;;;;;;;;;;19.27;87.54;101387.25;4958999;28;20596;-71
2023/06/10 01:54:03;;;;;;;;;;;;;;;19.23;88.13;101391.31;4960889;28;20091;-71
2023/06/10 01:56:28;;;;;;;;;;;;;;;19.19;89.68;101390.81;4958304;28;19953;-71
2023/06/10 01:58:58;;;;;;;;;;;;;;;19.17;89.43;101384.69;4957720;28;19961;-71
2023/06/10 02:01:24;;;;;;;;;;;;;;;19.16;88.74;101385.69;4952198;28;20172;-71
2023/06/10 02:03:49;;;;;;;;;;;;;;;19.09;89.33;101390.94;4947851;28;19926;-71
2023/06/10 02:06:14;;;;;;;;;;;;;;;19.10;88.81;101392.66;4953631;28;19922;-71
2023/06/10 02:08:40;;;;;;;;;;;;;;;19.10;89.14;101400.81;4947126;28;19926;-71
2023/06/10 02:11:06;;;;;;;;;;;;;;;19.07;89.00;101392.97;4966635;28;19921;-72
2023/06/10 02:13:32;;;;;;;;;;;;;;;19.15;88.12;101393.03;4951809;28;19937;-71
2023/06/10 02:15:57;;;;;;;;;;;;;;;19.20;88.53;101391.69;4950944;28;20576;-71
2023/06/10 02:18:22;;;;;;;;;;;;;;;19.23;87.41;101392.19;4949867;28;19922;-71
2023/06/10 02:20:47;;;;;;;;;;;;;;;19.23;88.14;101396.78;4952305;28;19926;-71
2023/06/10 02:23:12;;;;;;;;;;;;;;;19.24;88.58;101395.75;4953057;28;19967;-71
2023/06/10 02:25:38;;;;;;;;;;;;;;;19.18;89.29;101403.59;4949222;28;19922;-72
2023/06/10 02:28:03;;;;;;;;;;;;;;;19.13;87.54;101399.63;4949362;28;19926;-71
2023/06/10 02:30:28;;;;;;;;;;;;;;;19.15;88.56;101401.19;4952258;28;19922;-71
2023/06/10 02:32:55;;;;;;;;;;;;;;;19.14;87.74;101398.59;4948005;28;20235;-71
2023/06/10 02:35:23;;;;;;;;;;;;;;;19.09;87.47;101399.09;4952045;28;20028;-71
2023/06/10 02:37:49;;;;;;;;;;;;;;;19.07;87.93;101397.56;4951899;28;19970;-71
2023/06/10 02:40:14;;;;;;;;;;;;;;;19.09;88.14;101403.69;4950325;28;20571;-71
2023/06/10 02:42:39;;;;;;;;;;;;;;;19.09;89.08;101403.69;4949068;28;19922;-71
2023/06/10 02:45:05;;;;;;;;;;;;;;;19.04;90.33;101404.16;4951440;28;19926;-71
2023/06/10 02:47:30;;;;;;;;;;;;;;;19.01;90.75;101407.22;4949035;28;19978;-71
2023/06/10 02:49:55;;;;;;;;;;;;;;;18.91;88.72;101404.56;4951446;28;20198;-71
2023/06/10 02:52:21;;;;;;;;;;;;;;;18.88;90.47;101404.91;4946365;28;20016;-71
2023/06/10 02:54:46;;;;;;;;;;;;;;;18.81;89.15;101407.41;4949299;28;20025;-71
2023/06/10 02:57:11;;;;;;;;;;;;;;;18.83;88.86;101408.09;4949137;28;19949;-71
2023/06/10 02:59:37;;;;;;;;;;;;;;;18.80;88.47;101408.41;4946083;28;20408;-72
2023/06/10 03:02:02;;;;;;;;;;;;;;;18.78;89.92;101409.63;4935634;28;19929;-71
2023/06/10 03:04:28;;;;;;;;;;;;;;;18.73;88.85;101407.34;4946773;28;20240;-71
2023/06/10 03:06:54;;;;;;;;;;;;;;;18.66;88.58;101404.41;4945048;28;19925;-71
2023/06/10 03:09:19;;;;;;;;;;;;;;;18.66;89.15;101403.59;4947924;28;19972;-71
2023/06/10 03:11:44;;;;;;;;;;;;;;;18.61;89.98;101398.59;4950032;28;20654;-71
2023/06/10 03:14:10;;;;;;;;;;;;;;;18.55;90.50;101407.38;4950709;28;19922;-72
2023/06/10 03:16:35;;;;;;;;;;;;;;;18.52;89.99;101410.44;4955513;28;19922;-71
2023/06/10 03:19:00;;;;;;;;;;;;;;;18.53;89.37;101409.44;4971926;28;20560;-71
2023/06/10 03:21:26;;;;;;;;;;;;;;;18.51;89.57;101415.00;4957439;28;19964;-72
2023/06/10 03:23:51;;;;;;;;;;;;;;;18.42;89.27;101411.38;4956178;28;19922;-71
2023/06/10 03:26:17;;;;;;;;;;;;;;;18.44;88.34;101413.94;4956578;28;19929;-72
2023/06/10 03:28:42;;;;;;;;;;;;;;;18.44;90.54;101412.09;4952778;28;19926;-71
2023/06/10 03:31:07;;;;;;;;;;;;;;;18.44;88.58;101412.09;4956070;28;19922;-71
2023/06/10 03:33:32;;;;;;;;;;;;;;;18.43;90.53;101417.66;4952666;28;19961;-71
2023/06/10 03:35:58;;;;;;;;;;;;;;;18.41;88.61;101419.69;4956429;28;20008;-72
2023/06/10 03:38:23;;;;;;;;;;;;;;;18.39;89.19;101422.56;4956413;28;19930;-71
2023/06/10 03:40:48;;;;;;;;;;;;;;;18.34;90.02;101422.19;4953362;28;19969;-71
2023/06/10 03:43:13;;;;;;;;;;;;;;;18.30;89.68;101420.78;4954616;28;20044;-72
2023/06/10 03:45:39;;;;;;;;;;;;;;;18.34;89.20;101418.63;4953711;28;19928;-71
2023/06/10 03:48:04;;;;;;;;;;;;;;;18.36;91.17;101424.75;4954682;28;19926;-72
2023/06/10 03:50:29;;;;;;;;;;;;;;;18.28;92.64;101433.66;4953864;28;19931;-72
2023/06/10 03:52:55;;;;;;;;;;;;;;;18.24;91.90;101435.84;4956335;28;20045;-71
2023/06/10 03:55:21;;;;;;;;;;;;;;;18.28;92.97;101441.81;4956570;28;19929;-71
2023/06/10 03:57:46;;;;;;;;;;;;;;;18.25;92.91;101436.72;4953016;28;20077;-71
2023/06/10 04:00:12;;;;;;;;;;;;;;;18.24;92.91;101437.72;4948780;28;19922;-71
2023/06/10 04:02:41;;;;;;;;;;;;;;;18.23;94.42;101447.72;4952302;28;19929;-71
2023/06/10 04:05:06;;;;;;;;;;;;;;;18.19;95.79;101445.50;4953360;28;20012;-71
2023/06/10 04:07:32;;;;;;;;;;;;;;;18.14;95.50;101446.81;4955814;28;20439;-72
2023/06/10 04:09:57;;;;;;;;;;;;;;;18.12;94.41;101440.66;4956053;28;20395;-72
2023/06/10 04:12:22;;;;;;;;;;;;;;;18.13;95.67;101450.53;4951240;28;19922;-71
2023/06/10 04:14:48;;;;;;;;;;;;;;;18.11;95.99;101454.44;4949645;28;19976;-71
2023/06/10 04:17:13;;;;;;;;;;;;;;;18.13;94.25;101447.81;4959507;28;19945;-71
2023/06/10 04:19:38;;;;;;;;;;;;;;;18.14;94.30;101445.97;4956255;28;19922;-71
2023/06/10 04:22:04;;;;;;;;;;;;;;;18.17;94.83;101447.50;4955631;28;19946;-71
2023/06/10 04:24:30;;;;;;;;;;;;;;;18.20;93.92;101453.47;4956072;28;19964;-71
2023/06/10 04:26:55;;;;;;;;;;;;;;;18.23;94.64;101455.06;4958309;28;19926;-71
2023/06/10 04:29:20;;;;;;;;;;;;;;;18.26;93.99;101458.31;4955115;28;19961;-71
2023/06/10 04:31:46;;;;;;;;;;;;;;;18.28;94.91;101464.44;4954296;28;20012;-71
2023/06/10 04:34:12;;;;;;;;;;;;;;;18.34;92.99;101459.41;4950974;28;19926;-71
2023/06/10 04:36:37;;;;;;;;;;;;;;;18.31;93.48;101465.97;4953739;28;19918;-71
2023/06/10 04:39:02;;;;;;;;;;;;;;;18.40;94.54;101470.50;4955618;28;20365;-72
2023/06/10 04:41:28;;;;;;;;;;;;;;;18.37;93.98;101468.09;4954507;28;20515;-71
2023/06/10 04:43:53;;;;;;;;;;;;;;;18.44;93.07;101466.47;4955845;28;19922;-72
2023/06/10 04:46:19;;;;;;;;;;;;;;;18.50;93.38;101464.97;4956541;28;19925;-71
2023/06/10 04:48:46;;;;;;;;;;;;;;;18.54;92.15;101460.94;4969136;28;20423;-71
2023/06/10 04:51:11;;;;;;;;;;;;;;;18.61;91.92;101465.75;4955341;28;19929;-71
2023/06/10 04:53:36;;;;;;;;;;;;;;;18.61;91.26;101463.88;4956805;28;19922;-71
2023/06/10 04:56:02;;;;;;;;;;;;;;;18.73;90.57;101464.47;4957248;28;19914;-72
2023/06/10 04:58:27;;;;;;;;;;;;;;;18.80;91.21;101467.44;4951823;28;19969;-71
2023/06/10 05:00:52;;;;;;;;;;;;;;;18.83;90.62;101465.22;4951001;28;20021;-72
2023/06/10 05:03:17;;;;;;;;;;;;;;;18.90;89.22;101465.44;4949748;28;19922;-71
2023/06/10 05:05:42;;;;;;;;;;;;;;;18.96;89.53;101463.97;4957830;28;20004;-71
2023/06/10 05:08:08;;;;;;;;;;;;;;;18.99;88.96;101458.22;4955002;28;19926;-71
2023/06/10 05:10:34;;;;;;;;;;;;;;;19.01;88.72;101465.22;4956599;28;19933;-71
2023/06/10 05:12:59;;;;;;;;;;;;;;;19.07;89.67;101469.16;4949592;28;19933;-71
2023/06/10 05:15:24;;;;;;;;;;;;;;;19.09;88.44;101461.69;4952635;28;19929;-71
2023/06/10 05:17:50;;;;;;;;;;;;;;;19.18;89.08;101463.47;4954762;28;19953;-71
2023/06/10 05:20:15;;;;;;;;;;;;;;;19.23;86.30;101473.00;4971159;28;20047;-71
2023/06/10 05:22:40;;;;;;;;;;;;;;;19.24;87.57;101470.13;4950675;28;19918;-72
2023/06/10 05:25:06;;;;;;;;;;;;;;;19.27;88.37;101474.38;4958624;28;19933;-71
2023/06/10 05:27:31;;;;;;;;;;;;;;;19.35;86.28;101468.97;4954861;28;19929;-71
2023/06/10 05:29:57;;;;;;;;;;;;;;;19.40;85.05;101473.94;4953709;28;19965;-71
2023/06/10 05:32:22;;;;;;;;;;;;;;;19.45;85.54;101468.84;4956949;28;20087;-71
2023/06/10 05:34:47;;;;;;;;;;;;;;;19.48;84.62;101477.53;4958721;28;19922;-71
2023/06/10 05:37:13;;;;;;;;;;;;;;;19.61;85.52;101473.53;4956788;28;19973;-71
2023/06/10 05:39:38;;;;;;;;;;;;;;;19.68;84.83;101469.13;4957429;28;19946;-71
2023/06/10 05:42:06;;;;;;;;;;;;;;;19.71;84.53;101474.25;4957016;28;20036;-72
2023/06/10 05:44:31;;;;;;;;;;;;;;;19.80;81.15;101480.59;4955628;28;19929;-72
2023/06/10 05:46:56;;;;;;;;;;;;;;;19.89;81.75;101476.88;4959673;28;19918;-77
2023/06/10 05:49:22;;;;;;;;;;;;;;;19.87;80.73;101473.44;4957203;28;19926;-72
2023/06/10 05:51:47;;;;;;;;;;;;;;;20.00;80.41;101475.72;4954993;28;19929;-72
2023/06/10 05:54:12;;;;;;;;;;;;;;;20.04;79.97;101481.72;4959068;28;19936;-72
2023/06/10 05:56:37;;;;;;;;;;;;;;;20.13;79.08;101485.31;4957916;28;19954;-72
2023/06/10 05:59:02;;;;;;;;;;;;;;;20.22;81.05;101481.56;4954364;28;19928;-72
2023/06/10 06:01:27;;;;;;;;;;;;;;;20.31;76.77;101477.81;4956021;28;19921;-71
2023/06/10 06:03:53;;;;;;;;;;;;;;;20.35;77.19;101481.94;4958232;28;19926;-72
2023/06/10 06:06:20;;;;;;;;;;;;;;;20.36;77.48;101478.19;4956891;28;20414;-72
2023/06/10 06:08:45;;;;;;;;;;;;;;;20.38;77.87;101480.75;4964158;28;19926;-71
2023/06/10 06:11:10;;;;;;;;;;;;;;;20.45;75.99;101478.19;4951954;28;20982;-71
2023/06/10 06:13:35;;;;;;;;;;;;;;;20.53;79.15;101480.91;4958219;28;20073;-73
2023/06/10 06:16:01;;;;;;;;;;;;;;;20.64;75.52;101479.75;4963476;28;20323;-71
2023/06/10 06:18:26;;;;;;;;;;;;;;;20.74;76.53;101477.66;4958529;28;20523;-71
2023/06/10 06:20:51;;;;;;;;;;;;;;;20.85;77.65;101481.13;4954279;28;20361;-71
2023/06/10 06:23:16;;;;;;;;;;;;;;;20.84;76.85;101474.78;4953359;28;19969;-72
2023/06/10 06:25:42;;;;;;;;;;;;;;;20.85;74.13;101484.69;4955431;28;20012;-71
2023/06/10 06:28:08;;;;;;;;;;;;;;;20.82;73.47;101474.97;4956685;28;20168;-74
2023/06/10 06:30:34;;;;;;;;;;;;;;;20.93;73.08;101479.22;4956891;28;19922;-73
2023/06/10 06:32:59;;;;;;;;;;;;;;;21.03;70.45;101478.19;4966232;28;20401;-72
2023/06/10 06:35:24;;;;;;;;;;;;;;;21.09;72.28;101480.22;4967948;28;19921;-71
2023/06/10 06:37:49;;;;;;;;;;;;;;;21.15;72.87;101479.53;4958121;28;20056;-72
2023/06/10 06:40:15;;;;;;;;;;;;;;;21.20;72.46;101484.44;4956984;28;19926;-72
2023/06/10 06:42:40;;;;;;;;;;;;;;;21.35;75.46;101487.31;4948073;28;20006;-72
2023/06/10 06:45:05;;;;;;;;;;;;;;;21.38;72.32;101489.69;4947034;28;19992;-72
2023/06/10 06:47:30;;;;;;;;;;;;;;;21.45;73.78;101489.88;4950104;28;19926;-71
2023/06/10 06:49:56;;;;;;;;;;;;;;;21.64;76.24;101499.53;4949926;28;20517;-71
2023/06/10 06:52:23;;;;;;;;;;;;;;;21.66;71.26;101495.63;4962958;28;20871;-72
2023/06/10 06:54:48;;;;;;;;;;;;;;;21.74;71.85;101500.19;4950786;28;19922;-72
2023/06/10 06:57:13;;;;;;;;;;;;;;;21.67;69.37;101491.88;4946236;28;19922;-72
2023/06/10 06:59:38;;;;;;;;;;;;;;;21.64;69.08;101469.50;4942859;28;19949;-73
2023/06/10 07:02:04;;;;;;;;;;;;;;;21.85;69.32;101497.06;4949565;28;19922;-72
2023/06/10 07:04:29;;;;;;;;;;;;;;;21.88;67.24;101496.69;4948793;28;19922;-71
2023/06/10 07:06:55;;;;;;;;;;;;;;;21.98;70.39;101490.16;4947402;28;19980;-72
2023/06/10 07:09:20;;;;;;;;;;;;;;;22.01;67.11;101493.38;4948545;28;20024;-73
2023/06/10 07:11:45;;;;;;;;;;;;;;;22.16;67.08;101498.94;4951762;28;20332;-71
2023/06/10 07:14:10;;;;;;;;;;;;;;;22.24;69.12;101500.78;4949843;28;19969;-73
2023/06/10 07:16:36;;;;;;;;;;;;;;;22.46;71.17;101496.38;4952110;28;19969;-71
2023/06/10 07:19:01;;;;;;;;;;;;;;;22.57;68.92;101502.47;4950076;28;19926;-71
2023/06/10 07:21:28;;;;;;;;;;;;;;;22.51;65.20;101500.44;4948690;28;19964;-72
2023/06/10 07:23:53;;;;;;;;;;;;;;;22.57;66.47;101505.19;4954159;28;19957;-71
2023/06/10 07:26:18;;;;;;;;;;;;;;;22.68;71.63;101512.13;4964941;28;20085;-73
2023/06/10 07:28:44;;;;;;;;;;;;;;;22.75;74.87;101508.47;4975585;28;19926;-71
2023/06/10 07:31:09;;;;;;;;;;;;;;;23.00;70.42;101516.44;4957840;28;19922;-71
2023/06/10 07:33:34;;;;;;;;;;;;;;;23.23;71.46;101506.50;4942992;28;19962;-71
2023/06/10 07:35:59;;;;;;;;;;;;;;;23.42;67.95;101503.19;4949629;28;19922;-71
2023/06/10 07:38:25;;;;;;;;;;;;;;;23.40;64.36;101501.72;4949506;28;20220;-71
2023/06/10 07:40:50;;;;;;;;;;;;;;;23.29;65.15;101501.13;4947471;28;20021;-73
2023/06/10 07:43:15;;;;;;;;;;;;;;;23.38;66.34;101504.63;4968615;28;19945;-71
2023/06/10 07:45:41;;;;;;;;;;;;;;;23.47;69.42;101516.31;4952290;28;19926;-70
2023/06/10 07:48:07;;;;;;;;;;;;;;;23.64;67.72;101503.28;4949357;28;19931;-71
2023/06/10 07:50:32;;;;;;;;;;;;;;;23.74;64.07;101505.72;4947532;28;20396;-70
2023/06/10 07:52:57;;;;;;;;;;;;;;;23.88;66.32;101512.22;4953166;28;20381;-71
2023/06/10 07:55:22;;;;;;;;;;;;;;;23.92;64.00;101514.41;4938072;28;20467;-72
2023/06/10 07:57:47;;;;;;;;;;;;;;;23.96;65.90;101514.88;4945393;28;20426;-71
2023/06/10 08:00:13;;;;;;;;;;;;;;;24.11;68.08;101521.19;4945946;28;19957;-71
2023/06/10 08:02:38;;;;;;;;;;;;;;;24.23;63.34;101515.22;4957006;28;19980;-72
2023/06/10 08:05:04;;;;;;;;;;;;;;;24.30;66.62;101507.91;4956489;28;20238;-71
2023/06/10 08:07:30;;;;;;;;;;;;;;;24.41;66.89;101512.03;4952728;28;20319;-71
2023/06/10 08:09:56;;;;;;;;;;;;;;;24.51;62.64;101518.03;4954584;28;20507;-71
2023/06/10 08:12:21;;;;;;;;;;;;;;;24.47;64.90;101518.63;4941064;28;19926;-71
2023/06/10 08:14:46;;;;;;;;;;;;;;;24.51;65.11;101519.94;4936206;28;19965;-71
2023/06/10 08:17:11;;;;;;;;;;;;;;;24.59;61.50;101519.81;4946098;28;19976;-71
2023/06/10 08:19:36;;;;;;;;;;;;;;;24.62;60.72;101513.94;4955537;28;20009;-72
2023/06/10 08:22:02;;;;;;;;;;;;;;;24.75;59.96;101509.63;4946361;28;19922;-71
2023/06/10 08:24:27;;;;;;;;;;;;;;;24.71;64.42;101520.16;4947486;28;19926;-71
2023/06/10 08:26:52;;;;;;;;;;;;;;;24.85;60.61;101512.91;4939169;28;19930;-71
2023/06/10 08:29:17;;;;;;;;;;;;;;;24.82;58.67;101513.28;4943359;28;19926;-71
2023/06/10 08:31:43;;;;;;;;;;;;;;;24.87;62.32;101521.78;4945523;28;20283;-72
2023/06/10 08:34:08;;;;;;;;;;;;;;;24.98;59.89;101510.25;4958232;28;20384;-71
2023/06/10 08:36:34;;;;;;;;;;;;;;;25.07;59.42;101510.94;4944644;28;19922;-73
2023/06/10 08:38:59;;;;;;;;;;;;;;;25.14;57.89;101511.00;4946708;28;19926;-72
2023/06/10 08:41:26;;;;;;;;;;;;;;;25.30;60.68;101499.69;4938548;28;19949;-72
2023/06/10 08:43:59;;;;;;;;;;;;;;;25.37;62.00;101501.63;4960632;28;19969;-75
2023/06/10 08:46:24;;;;;;;;;;;;;;;25.41;60.27;101514.75;4939435;28;20276;-74
2023/06/10 08:48:50;;;;;;;;;;;;;;;25.64;60.73;101510.06;4938994;28;19930;-72
2023/06/10 08:51:15;;;;;;;;;;;;;;;25.71;62.13;101508.16;4941471;28;19922;-72
2023/06/10 08:53:44;;;;;;;;;;;;;;;25.66;57.32;101500.53;4941331;28;19961;-71
2023/06/10 08:56:09;;;;;;;;;;;;;;;25.88;56.44;101509.53;4946738;28;20483;-70
2023/06/10 08:58:40;;;;;;;;;;;;;;;26.06;58.59;101510.84;4952231;28;19930;-69
2023/06/10 09:01:05;;;;;;;;;;;;;;;26.13;55.00;101517.25;4950742;28;20194;-75
2023/06/10 09:03:30;;;;;;;;;;;;;;;26.14;62.26;101512.59;4947662;28;21435;-74
2023/06/10 09:05:56;;;;;;;;;;;;;;;26.21;58.69;101513.47;4946904;28;19930;-76
2023/06/10 09:08:22;;;;;;;;;;;;;;;26.26;59.80;101510.09;4946699;28;19953;-75
2023/06/10 09:10:47;;;;;;;;;;;;;;;26.37;59.10;101511.38;4944346;28;20053;-74
2023/06/10 09:13:15;;;;;;;;;;;;;;;26.42;58.75;101517.09;4936971;28;19962;-76
2023/06/10 09:15:41;;;;;;;;;;;;;;;26.25;57.12;101506.50;4941330;28;19923;-75
2023/06/10 09:18:06;;;;;;;;;;;;;;;26.44;65.32;101503.97;4946198;28;20483;-76
2023/06/10 09:20:32;;;;;;;;;;;;;;;26.51;57.11;101513.09;4948047;28;20010;-75
2023/06/10 09:22:57;;;;;;;;;;;;;;;26.62;55.06;101515.22;4954901;28;19930;-76
2023/06/10 09:25:33;;;;;;;;;;;;;;;26.70;60.24;101500.41;4945053;28;19969;-77
2023/06/10 09:27:59;;;;;;;;;;;;;;;26.82;56.68;101503.41;4945654;28;19926;-74
2023/06/10 09:30:30;;;;;;;;;;;;;;;27.02;54.71;101503.38;4955865;28;19929;-74
2023/06/10 09:32:56;;;;;;;;;;;;;;;27.02;57.06;101502.56;4945421;28;19996;-78
2023/06/10 09:35:22;;;;;;;;;;;;;;;27.21;55.73;101504.41;4950410;28;20328;-76
2023/06/10 09:37:49;;;;;;;;;;;;;;;27.46;56.17;101492.69;4950312;28;20073;-76
2023/06/10 09:40:14;;;;;;;;;;;;;;;27.51;56.92;101492.94;4959178;28;19953;-71
2023/06/10 09:42:40;;;;;;;;;;;;;;;27.48;52.99;101493.38;4954407;28;20632;-75
2023/06/10 09:45:05;;;;;;;;;;;;;;;27.49;55.78;101500.56;4942654;28;20483;-80
2023/06/10 09:47:31;;;;;;;;;;;;;;;27.60;53.42;101503.72;4948863;28;19943;-75
2023/06/10 09:49:56;;;;;;;;;;;;;;;27.61;50.69;101495.22;4952971;28;19965;-76
2023/06/10 09:52:25;;;;;;;;;;;;;;;27.56;50.80;101486.75;4946280;28;19929;-73
2023/06/10 09:54:51;;;;;;;;;;;;;;;27.82;50.07;101487.72;4947308;28;20120;-73
2023/06/10 09:57:17;;;;;;;;;;;;;;;28.00;47.93;101492.50;4946867;28;19921;-71
2023/06/10 09:59:42;;;;;;;;;;;;;;;27.98;48.18;101495.50;4942389;28;19933;-73
2023/06/10 10:02:13;;;;;;;;;;;;;;;27.99;49.44;101491.66;4955110;28;20032;-74
2023/06/10 10:04:38;;;;;;;;;;;;;;;28.08;47.71;101488.63;4960635;28;20027;-72
2023/06/10 10:07:03;;;;;;;;;;;;;;;28.25;46.11;101489.84;4949042;28;20388;-71
2023/06/10 10:09:29;;;;;;;;;;;;;;;28.51;46.47;101493.50;4948725;28;20393;-73
2023/06/10 10:11:54;;;;;;;;;;;;;;;28.55;45.50;101489.22;4955275;28;20705;-73
2023/06/10 10:14:20;;;;;;;;;;;;;;;28.64;45.16;101487.03;4940860;28;19972;-75
2023/06/10 10:16:45;;;;;;;;;;;;;;;28.77;46.39;101479.72;4952093;28;20204;-72
2023/06/10 10:19:11;;;;;;;;;;;;;;;28.63;48.77;101478.94;4954016;28;19926;-75
2023/06/10 10:21:43;;;;;;;;;;;;;;;28.75;48.71;101477.19;4947892;28;19926;-76
2023/06/10 10:24:16;;;;;;;;;;;;;;;28.93;42.88;101487.44;4956643;28;20017;-74
2023/06/10 10:26:41;;;;;;;;;;;;;;;29.15;44.49;101482.31;4950494;28;20058;-75
2023/06/10 10:29:25;;;;;;;;;;;;;;;29.01;46.37;101481.59;4940930;28;20802;-76
2023/06/10 10:31:53;;;;;;;;;;;;;;;29.16;41.84;101480.41;4970353;28;20304;-76
2023/06/10 10:34:19;;;;;;;;;;;;;;;29.31;44.63;101486.41;4954957;28;19922;-73
2023/06/10 10:36:45;;;;;;;;;;;;;;;29.61;43.61;101480.13;4955779;28;19985;-74
2023/06/10 10:39:10;;;;;;;;;;;;;;;29.89;45.86;101483.41;4961879;28;19925;-75
2023/06/10 10:41:36;;;;;;;;;;;;;;;30.08;42.77;101465.69;4941406;28;19926;-71
2023/06/10 10:44:01;;;;;;;;;;;;;;;30.11;41.09;101469.91;4944170;28;20565;-73
2023/06/10 10:46:26;;;;;;;;;;;;;;;30.06;41.08;101469.78;4938569;28;19969;-71
2023/06/10 10:48:52;;;;;;;;;;;;;;;30.17;40.66;101466.19;4942367;28;20389;-72
2023/06/10 10:51:17;;;;;;;;;;;;;;;30.61;43.87;101471.50;4965074;28;19925;-72
2023/06/10 10:53:44;;;;;;;;;;;;;;;30.91;41.90;101467.78;4964201;28;20347;-75
2023/06/10 10:56:13;;;;;;;;;;;;;;;31.00;38.86;101468.25;4951432;28;20219;-72
2023/06/10 10:58:38;;;;;;;;;;;;;;;31.13;38.44;101470.75;4951582;28;19965;-75
2023/06/10 11:01:14;;;;;;;;;;;;;;;31.18;40.09;101467.31;4950666;28;19926;-74
2023/06/10 11:03:47;;;;;;;;;;;;;;;30.79;39.29;101461.38;4932636;28;19922;-73
2023/06/10 11:06:13;;;;;;;;;;;;;;;30.96;39.92;101451.28;4951147;28;20068;-75
2023/06/10 11:08:41;;;;;;;;;;;;;;;31.20;39.55;101453.19;4941662;28;19926;-73
2023/06/10 11:11:20;;;;;;;;;;;;;;;31.32;42.89;101453.16;4942367;28;19926;-71
2023/06/10 11:14:00;;;;;;;;;;;;;;;31.02;36.60;101455.00;4958360;28;19928;-73
2023/06/10 11:16:25;;;;;;;;;;;;;;;31.30;37.66;101461.75;4961714;28;19926;-75
2023/06/10 11:18:53;;;;;;;;;;;;;;;31.01;36.13;101458.00;4948204;28;20050;-71
2023/06/10 11:21:18;;;;;;;;;;;;;;;31.46;36.08;101448.19;4955123;28;20451;-74
2023/06/10 11:23:43;;;;;;;;;;;;;;;31.32;35.62;101454.03;4952801;28;19969;-75
2023/06/10 11:26:20;;;;;;;;;;;;;;;31.66;35.33;101440.28;4945304;28;20039;-72
2023/06/10 11:28:45;;;;;;;;;;;;;;;32.34;38.42;101444.34;4942401;28;19934;-73
2023/06/10 11:31:19;;;;;;;;;;;;;;;32.74;34.49;101446.94;4959120;28;20266;-74
2023/06/10 11:33:44;;;;;;;;;;;;;;;32.13;35.20;101446.75;4951183;28;19972;-73
2023/06/10 11:36:09;;;;;;;;;;;;;;;32.58;33.43;101448.66;4948962;28;20044;-71
2023/06/10 11:38:35;;;;;;;;;;;;;;;32.84;34.00;101437.13;4967519;28;19922;-72
2023/06/10 11:41:00;;;;;;;;;;;;;;;33.06;36.10;101442.69;4963436;28;19914;-71
2023/06/10 11:43:25;;;;;;;;;;;;;;;33.33;36.56;101420.53;4950178;28;19929;-77
2023/06/10 11:45:54;;;;;;;;;;;;;;;33.25;33.10;101434.91;4966055;28;20013;-71
2023/06/10 11:48:19;;;;;;;;;;;;;;;33.40;33.87;101431.50;4946461;28;20331;-73
2023/06/10 11:50:44;;;;;;;;;;;;;;;33.82;32.82;101429.16;4944491;28;19929;-73
2023/06/10 11:53:09;;;;;;;;;;;;;;;33.86;33.88;101425.63;4948499;28;20298;-77
2023/06/10 11:55:48;;;;;;;;;;;;;;;34.31;33.23;101434.66;4960312;28;19922;-75
2023/06/10 11:58:18;;;;;;;;;;;;;;;34.36;34.01;101406.84;4951758;28;20032;-71
2023/06/10 12:00:44;;;;;;;;;;;;;;;34.11;32.26;101415.84;4961038;28;19921;-72
2023/06/10 12:03:09;;;;;;;;;;;;;;;34.24;31.16;101422.94;4961170;28;19922;-73
2023/06/10 12:05:34;;;;;;;;;;;;;;;34.60;32.78;101428.78;4943428;28;20587;-76
2023/06/10 12:08:12;;;;;;;;;;;;;;;34.68;31.85;101425.50;4948061;28;20315;-75
2023/06/10 12:10:43;;;;;;;;;;;;;;;34.94;32.20;101416.47;4964700;28;19974;-72
2023/06/10 12:13:09;;;;;;;;;;;;;;;35.03;31.38;101414.03;4950090;28;19926;-69
2023/06/10 12:15:34;;;;;;;;;;;;;;;34.48;31.23;101405.88;4936391;28;19993;-73
2023/06/10 12:17:59;;;;;;;;;;;;;;;34.91;29.42;101409.47;4947456;28;19918;-72
2023/06/10 12:20:26;;;;;;;;;;;;;;;34.15;30.24;101407.78;4948587;28;20004;-71
2023/06/10 12:22:51;;;;;;;;;;;;;;;35.01;30.39;101405.91;4965427;28;19929;-69
2023/06/10 12:25:16;;;;;;;;;;;;;;;34.17;30.68;101402.78;4953852;28;19961;-70
2023/06/10 12:27:51;;;;;;;;;;;;;;;34.36;31.36;101395.69;4958382;28;20636;-76
2023/06/10 12:30:19;;;;;;;;;;;;;;;34.50;29.37;101404.47;4952463;28;19926;-71